KMPZ/MPZ METAR and TAF weather

Enter ICAO airport designator
Station Type Date Time Source
KMPZ METAR 2020/01/27 10:55 UTC NOAA

KMPZ 271055Z AUTO 35004KT 3SM BR OVC004 00/00 A2996 RMK AO2


Station Type Date Time Source
KMPZ Decoded METAR 2020/01/27 10:55 UTC NOAA

Mount Pleasant, Mount Pleasant Municipal Airport, IA, United States (KMPZ) 40-56-48N 091-30-40W
Jan 27, 2020 - 05:55 AM EST / 2020.01.27 1055 UTC
Wind: from the N (350 degrees) at 5 MPH (4 KT):0
Visibility: 3 mile(s):0
Sky conditions: overcast
Weather: mist
Temperature: 32 F (0 C)
Windchill: 26 F (-3 C):1
Dew Point: 32 F (0 C)
Relative Humidity: 100%
Pressure (altimeter): 29.96 in. Hg (1014 hPa)
ob: KMPZ 271055Z AUTO 35004KT 3SM BR OVC004 00/00 A2996 RMK AO2
cycle: 11

Station Type Date Time Source
KMPZ TAF UTC NOAA

Error!

Example: see airport list